createdAt,value
2019-05-05T00:00:44.706Z,3.90
2019-05-05T00:03:15.054Z,3.75
2019-05-05T00:05:44.415Z,4.40
2019-05-05T00:08:10.353Z,3.83
2019-05-05T00:10:57.035Z,3.43
2019-05-05T00:13:27.054Z,4.00
2019-05-05T00:16:00.249Z,4.20
2019-05-05T00:18:27.882Z,5.25
2019-05-05T00:20:55.218Z,5.55
2019-05-05T00:23:21.139Z,4.20
2019-05-05T00:25:46.932Z,4.07
2019-05-05T00:28:14.319Z,5.03
2019-05-05T00:30:40.341Z,3.70
2019-05-05T00:33:06.259Z,4.73
2019-05-05T00:35:32.177Z,4.30
2019-05-05T00:37:58.372Z,4.40
2019-05-05T00:40:24.837Z,5.23
2019-05-05T00:42:50.788Z,4.53
2019-05-05T00:45:16.675Z,5.33
2019-05-05T00:47:47.221Z,4.00
2019-05-05T00:50:15.573Z,3.85
2019-05-05T00:52:41.361Z,4.42
2019-05-05T00:55:07.545Z,4.40
2019-05-05T00:57:34.781Z,4.15
2019-05-05T01:00:00.683Z,5.37
2019-05-05T01:02:28.396Z,4.60
2019-05-05T01:04:56.207Z,4.78
2019-05-05T01:07:21.982Z,4.58
2019-05-05T01:09:47.934Z,6.17
2019-05-05T01:12:15.219Z,5.17
2019-05-05T01:14:41.024Z,4.60
2019-05-05T01:17:06.802Z,4.57
2019-05-05T01:19:34.849Z,4.30
2019-05-05T01:22:00.342Z,4.40
2019-05-05T01:24:26.125Z,4.90
2019-05-05T01:26:51.900Z,4.10
2019-05-05T01:29:17.692Z,5.20
2019-05-05T01:31:45.218Z,7.30
2019-05-05T01:34:14.963Z,4.33
2019-05-05T01:36:40.670Z,4.53
2019-05-05T01:39:14.716Z,4.53
2019-05-05T01:41:42.560Z,4.28
2019-05-05T01:44:08.367Z,4.97
2019-05-05T01:46:35.304Z,4.67
2019-05-05T01:49:01.261Z,4.95
2019-05-05T01:51:27.242Z,5.70
2019-05-05T01:53:54.567Z,6.30
2019-05-05T01:56:20.706Z,5.35
2019-05-05T01:58:47.079Z,5.67
2019-05-05T02:01:12.891Z,4.95
2019-05-05T02:03:38.667Z,5.33
2019-05-05T02:06:05.263Z,4.97
2019-05-05T02:08:31.140Z,4.90
2019-05-05T02:10:56.923Z,5.57
2019-05-05T02:13:22.699Z,6.00
2019-05-05T02:15:48.531Z,6.10
2019-05-05T02:18:14.897Z,5.60
2019-05-05T02:20:50.274Z,6.10
2019-05-05T02:23:18.289Z,5.10
2019-05-05T02:25:44.741Z,5.90
2019-05-05T02:28:10.912Z,5.87
2019-05-05T02:30:47.725Z,5.42
2019-05-05T02:33:15.747Z,5.65
2019-05-05T02:35:41.814Z,6.33
2019-05-05T02:38:08.012Z,5.60
2019-05-05T02:40:35.083Z,5.15
2019-05-05T02:43:01.077Z,6.47
2019-05-05T02:45:35.289Z,5.67
2019-05-05T02:48:05.902Z,6.08
2019-05-05T02:50:50.830Z,5.62
2019-05-05T02:53:04.041Z,5.50
2019-05-05T02:55:32.811Z,6.05
2019-05-05T02:58:01.059Z,6.15
2019-05-05T03:00:29.149Z,5.75
2019-05-05T03:02:57.347Z,6.25
2019-05-05T03:05:23.627Z,5.40
2019-05-05T03:07:49.423Z,5.78
2019-05-05T03:10:15.301Z,5.37
2019-05-05T03:12:41.095Z,5.50
2019-05-05T03:15:07.066Z,6.80
2019-05-05T03:17:34.061Z,7.40
2019-05-05T03:20:00.646Z,5.47
2019-05-05T03:22:26.537Z,5.72
2019-05-05T03:24:54.128Z,4.80
2019-05-05T03:27:20.015Z,6.85
2019-05-05T03:29:45.886Z,6.60
2019-05-05T03:32:12.033Z,5.70
2019-05-05T03:34:38.563Z,7.03
2019-05-05T03:37:04.758Z,6.10
2019-05-05T03:39:33.888Z,5.78
2019-05-05T03:42:03.536Z,5.80
2019-05-05T03:44:34.266Z,6.40
2019-05-05T03:47:00.359Z,5.00
2019-05-05T03:49:26.234Z,5.53
2019-05-05T03:51:54.213Z,5.50
2019-05-05T03:54:20.010Z,5.65
2019-05-05T03:56:45.988Z,6.00
2019-05-05T03:59:14.023Z,8.07
2019-05-05T04:01:57.746Z,6.72
2019-05-05T04:04:24.749Z,6.22
2019-05-05T04:06:55.676Z,5.67
2019-05-05T04:09:21.669Z,5.20
2019-05-05T04:11:47.551Z,7.12
2019-05-05T04:14:14.187Z,6.00
2019-05-05T04:16:47.538Z,5.62
2019-05-05T04:19:24.039Z,5.58
2019-05-05T04:21:49.824Z,5.75
2019-05-05T04:24:15.622Z,5.50
2019-05-05T04:26:41.397Z,5.27
2019-05-05T04:29:07.188Z,5.30
2019-05-05T04:31:34.565Z,6.50
2019-05-05T04:34:00.471Z,6.33
2019-05-05T04:36:26.243Z,5.03
2019-05-05T04:38:54.590Z,5.28
2019-05-05T04:41:20.451Z,6.03
2019-05-05T04:43:46.258Z,5.33
2019-05-05T04:46:14.022Z,5.10
2019-05-05T04:48:43.450Z,5.17
2019-05-05T04:51:11.217Z,6.05
2019-05-05T04:53:41.449Z,6.55
2019-05-05T04:56:07.242Z,5.10
2019-05-05T04:58:33.566Z,6.20
2019-05-05T05:00:59.420Z,5.22
2019-05-05T05:03:45.051Z,5.53
2019-05-05T05:06:15.497Z,6.10
2019-05-05T05:08:41.278Z,5.45
2019-05-05T05:11:07.062Z,4.77
2019-05-05T05:13:34.750Z,12.60
2019-05-05T05:16:00.535Z,8.15
2019-05-05T05:18:26.310Z,6.40
2019-05-05T05:20:52.112Z,7.63
2019-05-05T05:23:17.894Z,6.70
2019-05-05T05:25:43.951Z,5.60
2019-05-05T05:28:09.774Z,5.45
2019-05-05T05:30:35.561Z,5.50
2019-05-05T05:33:01.337Z,5.07
2019-05-05T05:35:27.139Z,4.83
2019-05-05T05:37:53.988Z,4.93
2019-05-05T05:40:23.611Z,4.42
2019-05-05T05:42:49.499Z,4.22
2019-05-05T05:45:34.387Z,4.43
2019-05-05T05:48:04.586Z,4.42
2019-05-05T05:50:35.051Z,3.93
2019-05-05T05:53:00.832Z,3.83
2019-05-05T05:55:26.626Z,4.77
2019-05-05T05:57:54.177Z,4.20
2019-05-05T06:00:20.189Z,3.70
2019-05-05T06:02:45.964Z,3.10
2019-05-05T06:05:11.786Z,3.20
2019-05-05T06:07:37.561Z,4.73
2019-05-05T06:10:03.889Z,5.60
2019-05-05T06:12:29.652Z,2.93
2019-05-05T06:14:55.432Z,3.57
2019-05-05T06:17:21.233Z,2.70
2019-05-05T06:19:47.009Z,3.87
2019-05-05T06:22:15.171Z,3.00
2019-05-05T06:24:40.490Z,3.37
2019-05-05T06:27:06.284Z,4.27
2019-05-05T06:29:34.345Z,3.17
2019-05-05T06:31:59.751Z,3.53
2019-05-05T06:34:25.540Z,3.70
2019-05-05T06:36:51.343Z,3.57
2019-05-05T06:39:17.121Z,4.17
2019-05-05T06:41:50.607Z,3.00
2019-05-05T06:44:26.860Z,3.03
2019-05-05T06:47:13.541Z,3.13
2019-05-05T06:49:39.415Z,2.63
2019-05-05T06:52:05.203Z,3.30
2019-05-05T06:54:30.994Z,2.53
2019-05-05T06:56:56.800Z,2.60
2019-05-05T06:59:24.334Z,2.60
2019-05-05T07:01:50.279Z,3.33
2019-05-05T07:04:16.057Z,4.37
2019-05-05T07:06:53.549Z,2.70
2019-05-05T07:09:09.543Z,3.23
2019-05-05T07:11:35.324Z,3.43
2019-05-05T07:14:03.631Z,5.27
2019-05-05T07:16:29.322Z,6.73
2019-05-05T07:18:55.112Z,3.67
2019-05-05T07:21:23.509Z,3.33
2019-05-05T07:23:48.979Z,4.33
2019-05-05T07:26:14.751Z,6.27
2019-05-05T07:28:40.540Z,4.73
2019-05-05T07:31:06.372Z,5.70
2019-05-05T07:33:34.347Z,7.40
2019-05-05T07:36:18.212Z,6.00
2019-05-05T07:38:45.924Z,8.63
2019-05-05T07:41:11.713Z,10.40
2019-05-05T07:43:37.504Z,9.33
2019-05-05T07:46:04.440Z,7.83
2019-05-05T07:48:30.307Z,9.83
2019-05-05T07:51:02.123Z,15.33
2019-05-05T07:53:24.451Z,14.47
2019-05-05T07:55:50.479Z,18.80
2019-05-05T07:58:16.292Z,17.90
2019-05-05T08:00:43.624Z,18.97
2019-05-05T08:03:09.570Z,20.33
2019-05-05T08:05:35.364Z,14.17
2019-05-05T08:08:01.211Z,16.23
2019-05-05T08:10:27.003Z,14.43
2019-05-05T08:12:54.228Z,16.80
2019-05-05T08:15:23.719Z,19.27
2019-05-05T08:17:56.952Z,17.70
2019-05-05T08:20:30.431Z,18.10
2019-05-05T08:22:56.211Z,19.77
2019-05-05T08:25:36.320Z,17.20
2019-05-05T08:27:53.834Z,19.17
2019-05-05T08:30:33.845Z,20.23
2019-05-05T08:32:59.826Z,23.63
2019-05-05T08:35:25.619Z,15.30
2019-05-05T08:37:51.411Z,17.07
2019-05-05T08:40:17.300Z,17.67
2019-05-05T08:42:44.557Z,14.60
2019-05-05T08:45:10.518Z,17.03
2019-05-05T08:47:36.297Z,22.00
2019-05-05T08:50:04.250Z,20.30
2019-05-05T08:52:29.995Z,17.23
2019-05-05T08:54:55.784Z,17.97
2019-05-05T08:57:23.550Z,16.40
2019-05-05T08:59:49.257Z,11.63
2019-05-05T09:02:15.167Z,13.70
2019-05-05T09:04:40.937Z,17.57
2019-05-05T09:07:06.723Z,15.23
2019-05-05T09:09:33.509Z,17.10
2019-05-05T09:11:59.427Z,13.27
2019-05-05T09:14:25.231Z,16.57
2019-05-05T09:16:51.065Z,17.00
2019-05-05T09:19:18.743Z,16.10
2019-05-05T09:21:44.901Z,17.20
2019-05-05T09:24:15.318Z,14.73
2019-05-05T09:26:48.896Z,17.30
2019-05-05T09:29:25.589Z,17.70
2019-05-05T09:31:51.374Z,14.87
2019-05-05T09:34:17.189Z,16.20
2019-05-05T09:36:43.958Z,15.63
2019-05-05T09:39:09.900Z,17.07
2019-05-05T09:41:35.695Z,12.43
2019-05-05T09:44:01.473Z,16.17
2019-05-05T09:46:27.360Z,23.43
2019-05-05T09:48:54.178Z,13.20
2019-05-05T09:51:20.075Z,13.90
2019-05-05T09:53:45.954Z,18.97
2019-05-05T09:56:11.764Z,14.63
2019-05-05T09:58:37.543Z,16.33
2019-05-05T10:01:04.253Z,14.50
2019-05-05T10:03:30.044Z,11.00
2019-05-05T10:05:55.820Z,9.03
2019-05-05T10:08:23.528Z,9.97
2019-05-05T10:10:49.377Z,9.23
2019-05-05T10:13:15.246Z,12.50
2019-05-05T10:15:41.037Z,10.07
2019-05-05T10:18:06.820Z,8.90
2019-05-05T10:20:34.373Z,10.87
2019-05-05T10:23:00.240Z,8.63
2019-05-05T10:25:44.650Z,10.43
2019-05-05T10:28:10.616Z,12.47
2019-05-05T10:30:36.398Z,12.97
2019-05-05T10:33:03.742Z,12.80
2019-05-05T10:35:29.692Z,8.40
2019-05-05T10:37:55.480Z,12.27
2019-05-05T10:40:25.701Z,14.00
2019-05-05T10:42:54.187Z,12.23
2019-05-05T10:45:21.376Z,13.63
2019-05-05T10:47:47.568Z,15.10
2019-05-05T10:50:13.942Z,14.13
2019-05-05T10:52:39.831Z,13.60
2019-05-05T10:55:06.167Z,12.33
2019-05-05T10:57:34.027Z,10.20
2019-05-05T11:00:10.094Z,9.77
2019-05-05T11:02:27.475Z,11.20
2019-05-05T11:04:54.626Z,12.73
2019-05-05T11:07:20.479Z,8.50
2019-05-05T11:09:46.262Z,13.13
2019-05-05T11:12:13.708Z,12.60
2019-05-05T11:14:39.735Z,12.30
2019-05-05T11:17:05.533Z,13.60
2019-05-05T11:19:33.466Z,15.80
2019-05-05T11:21:59.962Z,15.67
2019-05-05T11:24:25.755Z,24.40
2019-05-05T11:26:53.817Z,15.63
2019-05-05T11:29:20.461Z,10.87
2019-05-05T11:31:46.185Z,14.37
2019-05-05T11:34:14.167Z,13.60
2019-05-05T11:36:43.790Z,10.13
2019-05-05T11:39:09.659Z,10.13
2019-05-05T11:41:35.439Z,11.40
2019-05-05T11:44:01.317Z,10.17
2019-05-05T11:46:27.144Z,14.57
2019-05-05T11:48:54.373Z,9.30
2019-05-05T11:51:20.308Z,10.90
2019-05-05T11:53:46.107Z,10.53
2019-05-05T11:56:11.886Z,10.67
2019-05-05T11:58:37.683Z,10.57
2019-05-05T12:01:03.901Z,15.33
2019-05-05T12:03:29.735Z,13.13
2019-05-05T12:05:55.531Z,11.63
2019-05-05T12:08:21.307Z,12.87
2019-05-05T12:10:49.002Z,11.80
2019-05-05T12:13:14.914Z,10.93
2019-05-05T12:15:44.536Z,10.60
2019-05-05T12:18:10.253Z,8.77
2019-05-05T12:20:37.651Z,11.50
2019-05-05T12:23:04.617Z,12.10
2019-05-05T12:25:50.377Z,11.20
2019-05-05T12:28:24.843Z,10.13
2019-05-05T12:30:52.841Z,16.03
2019-05-05T12:33:18.618Z,10.73
2019-05-05T12:35:44.629Z,11.73
2019-05-05T12:38:10.395Z,11.47
2019-05-05T12:40:36.189Z,10.57
2019-05-05T12:43:03.671Z,13.00
2019-05-05T12:45:31.486Z,9.90
2019-05-05T12:47:59.163Z,12.07
2019-05-05T12:50:25.055Z,8.53
2019-05-05T12:52:50.840Z,9.90
2019-05-05T12:55:16.627Z,12.00
2019-05-05T12:57:43.586Z,10.07
2019-05-05T13:00:09.838Z,8.27
2019-05-05T13:02:35.637Z,9.60
2019-05-05T13:05:01.523Z,12.07
2019-05-05T13:07:27.318Z,9.00
2019-05-05T13:09:54.487Z,9.27
2019-05-05T13:12:20.390Z,11.57
2019-05-05T13:14:46.180Z,8.93
2019-05-05T13:17:14.045Z,8.33
2019-05-05T13:19:43.594Z,8.70
2019-05-05T13:22:16.724Z,10.13
2019-05-05T13:24:44.403Z,9.57
2019-05-05T13:27:19.226Z,9.90
2019-05-05T13:29:39.796Z,10.50
2019-05-05T13:32:05.698Z,8.97
2019-05-05T13:34:31.481Z,12.80
2019-05-05T13:36:57.316Z,10.63
2019-05-05T13:39:24.736Z,10.47
2019-05-05T13:41:50.779Z,12.53
2019-05-05T13:44:18.546Z,6.97
2019-05-05T13:46:44.369Z,9.67
2019-05-05T13:49:26.739Z,8.40
2019-05-05T13:51:54.017Z,11.27
2019-05-05T13:54:19.948Z,7.80
2019-05-05T13:56:45.743Z,10.23
2019-05-05T13:59:11.530Z,9.90
2019-05-05T14:01:37.342Z,8.67
2019-05-05T14:04:04.584Z,7.77
2019-05-05T14:06:30.447Z,8.63
2019-05-05T14:08:56.224Z,7.70
2019-05-05T14:11:22.008Z,7.83
2019-05-05T14:13:48.588Z,9.23
2019-05-05T14:16:14.509Z,7.23
2019-05-05T14:18:40.335Z,6.67
2019-05-05T14:21:06.118Z,7.10
2019-05-05T14:23:34.535Z,8.67
2019-05-05T14:26:00.411Z,8.10
2019-05-05T14:28:26.207Z,7.50
2019-05-05T14:30:59.783Z,8.40
2019-05-05T14:33:27.580Z,10.13
2019-05-05T14:36:01.044Z,8.20
2019-05-05T14:38:49.315Z,9.03
2019-05-05T14:41:15.056Z,9.67
2019-05-05T14:43:41.011Z,6.93
2019-05-05T14:46:07.252Z,9.13
2019-05-05T14:48:34.023Z,8.70
2019-05-05T14:51:00.726Z,10.33
2019-05-05T14:53:26.527Z,11.00
2019-05-05T14:55:53.790Z,10.83
2019-05-05T14:58:19.632Z,11.00
2019-05-05T15:00:45.445Z,10.27
2019-05-05T15:03:11.240Z,8.07
2019-05-05T15:05:41.695Z,10.13
2019-05-05T15:08:24.318Z,11.13
2019-05-05T15:10:54.833Z,14.07
2019-05-05T15:13:21.650Z,14.77
2019-05-05T15:15:47.751Z,9.57
2019-05-05T15:18:14.640Z,12.03
2019-05-05T15:20:40.551Z,12.40
2019-05-05T15:23:06.336Z,8.60
2019-05-05T15:25:34.043Z,11.70
2019-05-05T15:27:59.823Z,9.13
2019-05-05T15:30:27.258Z,11.87
2019-05-05T15:32:54.122Z,8.20
2019-05-05T15:35:20.024Z,10.07
2019-05-05T15:37:45.814Z,9.50
2019-05-05T15:40:14.174Z,8.37
2019-05-05T15:42:39.793Z,7.67
2019-05-05T15:45:05.702Z,7.87
2019-05-05T15:47:31.481Z,9.90
2019-05-05T15:49:57.286Z,9.50
2019-05-05T15:52:24.353Z,8.33
2019-05-05T15:54:50.164Z,7.97
2019-05-05T15:57:18.050Z,7.17
2019-05-05T15:59:43.785Z,8.07
2019-05-05T16:02:09.515Z,7.70
2019-05-05T16:04:35.327Z,9.60
2019-05-05T16:07:01.110Z,5.50
2019-05-05T16:09:26.891Z,12.47
2019-05-05T16:11:54.607Z,7.90
2019-05-05T16:14:20.926Z,8.83
2019-05-05T16:16:48.616Z,7.57
2019-05-05T16:19:22.097Z,9.00
2019-05-05T16:21:49.784Z,8.93
2019-05-05T16:24:17.474Z,7.43
2019-05-05T16:26:43.284Z,8.10
2019-05-05T16:29:09.069Z,9.63
2019-05-05T16:31:34.867Z,8.50
2019-05-05T16:34:00.644Z,9.93
2019-05-05T16:36:29.680Z,7.60
2019-05-05T16:38:55.472Z,9.97
2019-05-05T16:41:21.264Z,5.97
2019-05-05T16:43:49.521Z,12.63
2019-05-05T16:46:17.009Z,6.90
2019-05-05T16:48:43.976Z,6.60
2019-05-05T16:51:13.759Z,6.80
2019-05-05T16:53:39.852Z,9.33
2019-05-05T16:56:08.344Z,8.77
2019-05-05T16:58:34.133Z,11.43
2019-05-05T17:00:59.929Z,7.13
2019-05-05T17:03:25.731Z,7.63
2019-05-05T17:05:51.518Z,8.20
2019-05-05T17:08:17.298Z,8.00
2019-05-05T17:10:43.563Z,7.00
2019-05-05T17:13:15.370Z,10.47
2019-05-05T17:15:44.001Z,8.60
2019-05-05T17:18:35.177Z,8.67
2019-05-05T17:20:56.483Z,8.60
2019-05-05T17:23:23.745Z,12.00
2019-05-05T17:25:49.575Z,8.20
2019-05-05T17:28:15.375Z,8.43
2019-05-05T17:30:41.160Z,10.80
2019-05-05T17:33:06.956Z,6.67
2019-05-05T17:35:33.682Z,5.90
2019-05-05T17:38:13.806Z,7.37
2019-05-05T17:40:44.707Z,7.03
2019-05-05T17:43:24.667Z,6.40
2019-05-05T17:45:56.920Z,7.60
2019-05-05T17:48:36.481Z,8.57
2019-05-05T17:51:09.547Z,14.73
2019-05-05T17:53:37.258Z,10.47
2019-05-05T17:56:04.962Z,10.50
2019-05-05T17:58:30.767Z,8.60
2019-05-05T18:00:58.449Z,8.70
2019-05-05T18:03:34.769Z,9.03
2019-05-05T18:06:23.614Z,6.30
2019-05-05T18:08:53.791Z,13.83
2019-05-05T18:11:30.133Z,7.47
2019-05-05T18:14:03.994Z,9.87
2019-05-05T18:16:33.899Z,7.47
2019-05-05T18:19:00.745Z,8.43
2019-05-05T18:21:34.756Z,10.13
2019-05-05T18:24:01.147Z,10.53
2019-05-05T18:26:26.929Z,12.77
2019-05-05T18:28:54.048Z,11.90
2019-05-05T18:31:20.150Z,10.27
2019-05-05T18:33:45.950Z,7.27
2019-05-05T18:36:11.729Z,8.50
2019-05-05T18:38:37.519Z,10.67
2019-05-05T18:41:05.212Z,8.77
2019-05-05T18:43:34.042Z,7.47
2019-05-05T18:46:01.300Z,7.07
2019-05-05T18:48:27.097Z,7.40
2019-05-05T18:50:54.165Z,8.17
2019-05-05T18:53:19.978Z,6.30
2019-05-05T18:55:45.761Z,6.20
2019-05-05T18:58:11.553Z,11.60
2019-05-05T19:00:47.907Z,9.63
2019-05-05T19:03:20.294Z,5.97
2019-05-05T19:05:49.550Z,11.30
2019-05-05T19:08:17.242Z,8.77
2019-05-05T19:10:43.390Z,5.20
2019-05-05T19:13:09.224Z,8.17
2019-05-05T19:15:35.093Z,7.60
2019-05-05T19:18:01.034Z,5.80
2019-05-05T19:20:28.720Z,8.03
2019-05-05T19:23:03.485Z,6.97
2019-05-05T19:25:29.373Z,5.23
2019-05-05T19:27:55.947Z,6.87
2019-05-05T19:30:21.843Z,5.30
2019-05-05T19:32:47.623Z,7.80
2019-05-05T19:35:13.421Z,5.23
2019-05-05T19:37:39.198Z,7.13
2019-05-05T19:40:06.172Z,7.10
2019-05-05T19:42:32.081Z,6.90
2019-05-05T19:44:57.891Z,6.10
2019-05-05T19:47:24.604Z,6.87
2019-05-05T19:50:07.434Z,9.77
2019-05-05T19:52:34.866Z,6.43
2019-05-05T19:55:00.713Z,7.33
2019-05-05T19:57:26.494Z,7.53
2019-05-05T19:59:54.145Z,9.53
2019-05-05T20:02:19.965Z,8.33
2019-05-05T20:04:45.764Z,8.43
2019-05-05T20:07:13.803Z,4.97
2019-05-05T20:09:39.251Z,9.97
2019-05-05T20:12:05.027Z,9.00
2019-05-05T20:14:30.823Z,8.70
2019-05-05T20:17:10.642Z,7.43
2019-05-05T20:19:38.341Z,9.30
2019-05-05T20:22:04.215Z,9.50
2019-05-05T20:24:30.025Z,8.53
2019-05-05T20:26:55.809Z,5.77
2019-05-05T20:29:23.873Z,6.07
2019-05-05T20:31:49.280Z,9.80
2019-05-05T20:34:28.623Z,7.00
2019-05-05T20:37:04.283Z,9.50
2019-05-05T20:39:29.837Z,6.87
2019-05-05T20:41:55.632Z,7.63
2019-05-05T20:44:22.023Z,8.27
2019-05-05T20:46:48.257Z,11.97
2019-05-05T20:49:14.486Z,11.93
2019-05-05T20:51:40.887Z,7.20
2019-05-05T20:54:07.656Z,7.13
2019-05-05T20:56:34.122Z,8.47
2019-05-05T20:58:59.880Z,8.83
2019-05-05T21:01:25.674Z,10.23
2019-05-05T21:03:53.550Z,9.00
2019-05-05T21:06:19.415Z,8.63
2019-05-05T21:08:45.576Z,7.43
2019-05-05T21:11:11.369Z,6.97
2019-05-05T21:13:37.142Z,8.57
2019-05-05T21:16:02.933Z,8.07
2019-05-05T21:18:28.716Z,9.03
2019-05-05T21:20:55.607Z,7.03
2019-05-05T21:23:26.919Z,8.23
2019-05-05T21:26:10.037Z,8.30
2019-05-05T21:28:35.892Z,6.40
2019-05-05T21:31:01.785Z,8.73
2019-05-05T21:33:27.559Z,7.57
2019-05-05T21:35:55.094Z,10.27
2019-05-05T21:38:21.098Z,10.60
2019-05-05T21:40:46.872Z,7.07
2019-05-05T21:43:12.657Z,7.37
2019-05-05T21:45:38.551Z,9.33
2019-05-05T21:48:04.555Z,8.53
2019-05-05T21:50:33.896Z,7.27
2019-05-05T21:53:01.721Z,11.10
2019-05-05T21:55:29.677Z,11.47
2019-05-05T21:57:57.370Z,10.63
2019-05-05T22:00:41.519Z,12.17
2019-05-05T22:03:07.910Z,10.83
2019-05-05T22:05:33.687Z,9.30
2019-05-05T22:07:59.487Z,8.43
2019-05-05T22:10:25.264Z,9.40
2019-05-05T22:12:51.053Z,11.73
2019-05-05T22:15:16.827Z,10.53
2019-05-05T22:17:44.654Z,12.33
2019-05-05T22:20:14.251Z,11.00
2019-05-05T22:22:41.792Z,12.63
2019-05-05T22:25:07.678Z,9.67
2019-05-05T22:27:34.573Z,12.17
2019-05-05T22:30:09.647Z,11.90
2019-05-05T22:32:28.123Z,11.03
2019-05-05T22:34:53.929Z,12.63
2019-05-05T22:37:19.699Z,10.50
2019-05-05T22:39:45.504Z,9.30
2019-05-05T22:42:11.368Z,9.57
2019-05-05T22:44:37.168Z,10.90
2019-05-05T22:47:04.707Z,8.47
2019-05-05T22:49:30.657Z,10.47
2019-05-05T22:51:56.439Z,13.37
2019-05-05T22:54:24.084Z,16.17
2019-05-05T22:56:49.907Z,9.17
2019-05-05T22:59:15.694Z,11.43
2019-05-05T23:01:41.467Z,13.50
2019-05-05T23:04:09.156Z,10.00
2019-05-05T23:06:43.831Z,11.03
2019-05-05T23:09:11.551Z,8.90
2019-05-05T23:11:37.331Z,13.67
2019-05-05T23:14:21.440Z,10.90
2019-05-05T23:16:49.122Z,12.83
2019-05-05T23:19:14.917Z,7.70
2019-05-05T23:21:45.372Z,9.93
2019-05-05T23:24:24.923Z,9.40
2019-05-05T23:26:54.434Z,13.80
2019-05-05T23:29:20.290Z,12.90
2019-05-05T23:31:46.063Z,10.60
2019-05-05T23:34:11.843Z,8.80
2019-05-05T23:36:37.636Z,7.97
2019-05-05T23:39:05.021Z,8.93
2019-05-05T23:41:30.808Z,6.67
2019-05-05T23:43:56.599Z,8.17
2019-05-05T23:46:24.145Z,7.83
2019-05-05T23:48:50.079Z,9.13
2019-05-05T23:51:15.869Z,9.40
2019-05-05T23:53:44.306Z,9.00
2019-05-05T23:56:09.951Z,10.13
2019-05-05T23:58:35.718Z,11.13
